sensor_id;sensor_type;location;lat;lon;timestamp;P1;durP1;ratioP1;P2;durP2;ratioP2
22812;SDS011;11573;51.334;3.244;2023-05-16T00:00:37;25.98;;;3.30;;
22812;SDS011;11573;51.334;3.244;2023-05-16T00:03:04;18.05;;;2.75;;
22812;SDS011;11573;51.334;3.244;2023-05-16T00:05:31;13.75;;;2.80;;
22812;SDS011;11573;51.334;3.244;2023-05-16T00:07:58;15.80;;;2.53;;
22812;SDS011;11573;51.334;3.244;2023-05-16T00:10:25;16.52;;;2.80;;
22812;SDS011;11573;51.334;3.244;2023-05-16T00:12:53;16.35;;;3.35;;
22812;SDS011;11573;51.334;3.244;2023-05-16T00:15:21;15.00;;;2.42;;
22812;SDS011;11573;51.334;3.244;2023-05-16T00:17:50;23.48;;;3.30;;
22812;SDS011;11573;51.334;3.244;2023-05-16T00:20:17;19.40;;;2.78;;
22812;SDS011;11573;51.334;3.244;2023-05-16T00:22:48;19.63;;;2.58;;
22812;SDS011;11573;51.334;3.244;2023-05-16T00:25:16;16.50;;;3.05;;
22812;SDS011;11573;51.334;3.244;2023-05-16T00:27:43;20.35;;;2.42;;
22812;SDS011;11573;51.334;3.244;2023-05-16T00:30:10;11.43;;;2.88;;
22812;SDS011;11573;51.334;3.244;2023-05-16T00:32:38;17.17;;;3.10;;
22812;SDS011;11573;51.334;3.244;2023-05-16T00:35:05;14.40;;;2.67;;
22812;SDS011;11573;51.334;3.244;2023-05-16T00:37:36;17.95;;;2.90;;
22812;SDS011;11573;51.334;3.244;2023-05-16T00:40:04;15.05;;;2.85;;
22812;SDS011;11573;51.334;3.244;2023-05-16T00:42:31;22.40;;;2.95;;
22812;SDS011;11573;51.334;3.244;2023-05-16T00:44:58;15.27;;;2.75;;
22812;SDS011;11573;51.334;3.244;2023-05-16T00:47:27;17.23;;;3.33;;
22812;SDS011;11573;51.334;3.244;2023-05-16T00:49:54;16.60;;;2.88;;
22812;SDS011;11573;51.334;3.244;2023-05-16T00:52:22;23.30;;;2.70;;
22812;SDS011;11573;51.334;3.244;2023-05-16T00:54:50;12.73;;;2.45;;
22812;SDS011;11573;51.334;3.244;2023-05-16T00:57:17;16.40;;;3.03;;
22812;SDS011;11573;51.334;3.244;2023-05-16T00:59:45;14.90;;;2.15;;
22812;SDS011;11573;51.334;3.244;2023-05-16T01:02:12;14.35;;;2.70;;
22812;SDS011;11573;51.334;3.244;2023-05-16T01:04:39;18.08;;;3.05;;
22812;SDS011;11573;51.334;3.244;2023-05-16T01:07:08;20.25;;;3.08;;
22812;SDS011;11573;51.334;3.244;2023-05-16T01:09:35;15.25;;;2.72;;
22812;SDS011;11573;51.334;3.244;2023-05-16T01:17:56;16.00;;;2.00;;
22812;SDS011;11573;51.334;3.244;2023-05-16T01:20:48;11.27;;;2.47;;
22812;SDS011;11573;51.334;3.244;2023-05-16T01:26:26;13.82;;;3.03;;
22812;SDS011;11573;51.334;3.244;2023-05-16T01:28:53;21.33;;;2.42;;
22812;SDS011;11573;51.334;3.244;2023-05-16T01:31:21;14.15;;;2.65;;
22812;SDS011;11573;51.334;3.244;2023-05-16T01:33:49;20.45;;;2.35;;
22812;SDS011;11573;51.334;3.244;2023-05-16T01:39:21;18.02;;;3.28;;
22812;SDS011;11573;51.334;3.244;2023-05-16T01:42:03;15.20;;;2.58;;
22812;SDS011;11573;51.334;3.244;2023-05-16T01:47:28;19.25;;;2.78;;
22812;SDS011;11573;51.334;3.244;2023-05-16T01:52:49;13.88;;;2.67;;
22812;SDS011;11573;51.334;3.244;2023-05-16T01:55:44;16.70;;;2.70;;
22812;SDS011;11573;51.334;3.244;2023-05-16T01:58:13;9.52;;;2.30;;
22812;SDS011;11573;51.334;3.244;2023-05-16T02:00:42;14.63;;;2.58;;
22812;SDS011;11573;51.334;3.244;2023-05-16T02:03:10;12.77;;;2.58;;
22812;SDS011;11573;51.334;3.244;2023-05-16T02:05:37;11.00;;;2.72;;
22812;SDS011;11573;51.334;3.244;2023-05-16T02:08:04;10.23;;;2.55;;
22812;SDS011;11573;51.334;3.244;2023-05-16T02:10:31;14.70;;;2.63;;
22812;SDS011;11573;51.334;3.244;2023-05-16T02:12:58;13.77;;;2.70;;
22812;SDS011;11573;51.334;3.244;2023-05-16T02:15:25;14.65;;;2.58;;
22812;SDS011;11573;51.334;3.244;2023-05-16T02:17:53;10.55;;;2.05;;
22812;SDS011;11573;51.334;3.244;2023-05-16T02:20:20;16.08;;;2.47;;
22812;SDS011;11573;51.334;3.244;2023-05-16T02:22:47;15.75;;;3.13;;
22812;SDS011;11573;51.334;3.244;2023-05-16T02:25:15;20.67;;;2.58;;
22812;SDS011;11573;51.334;3.244;2023-05-16T02:27:42;17.52;;;2.90;;
22812;SDS011;11573;51.334;3.244;2023-05-16T02:30:09;13.52;;;2.55;;
22812;SDS011;11573;51.334;3.244;2023-05-16T02:32:40;13.57;;;2.28;;
22812;SDS011;11573;51.334;3.244;2023-05-16T02:35:10;12.90;;;2.28;;
22812;SDS011;11573;51.334;3.244;2023-05-16T02:37:37;14.52;;;2.53;;
22812;SDS011;11573;51.334;3.244;2023-05-16T02:40:05;13.52;;;2.63;;
22812;SDS011;11573;51.334;3.244;2023-05-16T02:42:35;18.95;;;2.83;;
22812;SDS011;11573;51.334;3.244;2023-05-16T02:45:02;14.30;;;2.65;;
22812;SDS011;11573;51.334;3.244;2023-05-16T02:47:29;14.65;;;2.42;;
22812;SDS011;11573;51.334;3.244;2023-05-16T02:49:56;11.32;;;2.78;;
22812;SDS011;11573;51.334;3.244;2023-05-16T02:52:23;11.88;;;2.95;;
22812;SDS011;11573;51.334;3.244;2023-05-16T02:54:50;16.88;;;2.63;;
22812;SDS011;11573;51.334;3.244;2023-05-16T02:57:37;14.10;;;2.95;;
22812;SDS011;11573;51.334;3.244;2023-05-16T03:00:04;18.35;;;2.55;;
22812;SDS011;11573;51.334;3.244;2023-05-16T03:02:32;9.57;;;2.20;;
22812;SDS011;11573;51.334;3.244;2023-05-16T03:04:59;12.68;;;2.40;;
22812;SDS011;11573;51.334;3.244;2023-05-16T03:07:25;12.90;;;2.40;;
22812;SDS011;11573;51.334;3.244;2023-05-16T03:09:52;10.77;;;2.92;;
22812;SDS011;11573;51.334;3.244;2023-05-16T03:12:19;15.43;;;2.08;;
22812;SDS011;11573;51.334;3.244;2023-05-16T03:14:46;14.15;;;2.25;;
22812;SDS011;11573;51.334;3.244;2023-05-16T03:17:13;18.30;;;3.20;;
22812;SDS011;11573;51.334;3.244;2023-05-16T03:19:40;7.40;;;1.85;;
22812;SDS011;11573;51.334;3.244;2023-05-16T03:22:07;11.75;;;2.22;;
22812;SDS011;11573;51.334;3.244;2023-05-16T03:24:34;14.07;;;2.42;;
22812;SDS011;11573;51.334;3.244;2023-05-16T03:27:01;14.15;;;2.30;;
22812;SDS011;11573;51.334;3.244;2023-05-16T03:29:29;7.22;;;2.15;;
22812;SDS011;11573;51.334;3.244;2023-05-16T03:31:56;16.42;;;2.60;;
22812;SDS011;11573;51.334;3.244;2023-05-16T03:34:23;11.85;;;2.45;;
22812;SDS011;11573;51.334;3.244;2023-05-16T03:36:50;21.55;;;3.05;;
22812;SDS011;11573;51.334;3.244;2023-05-16T03:39:17;17.23;;;2.60;;
22812;SDS011;11573;51.334;3.244;2023-05-16T03:41:45;10.88;;;2.13;;
22812;SDS011;11573;51.334;3.244;2023-05-16T03:44:12;11.40;;;2.50;;
22812;SDS011;11573;51.334;3.244;2023-05-16T03:46:39;11.43;;;2.13;;
22812;SDS011;11573;51.334;3.244;2023-05-16T03:49:06;11.10;;;2.47;;
22812;SDS011;11573;51.334;3.244;2023-05-16T03:51:33;12.05;;;2.50;;
22812;SDS011;11573;51.334;3.244;2023-05-16T03:54:00;13.82;;;1.90;;
22812;SDS011;11573;51.334;3.244;2023-05-16T03:56:27;11.98;;;2.10;;
22812;SDS011;11573;51.334;3.244;2023-05-16T03:58:53;12.60;;;2.53;;
22812;SDS011;11573;51.334;3.244;2023-05-16T04:01:20;15.73;;;2.65;;
22812;SDS011;11573;51.334;3.244;2023-05-16T04:03:47;7.07;;;2.30;;
22812;SDS011;11573;51.334;3.244;2023-05-16T04:06:16;9.63;;;2.13;;
22812;SDS011;11573;51.334;3.244;2023-05-16T04:08:43;12.75;;;1.98;;
22812;SDS011;11573;51.334;3.244;2023-05-16T04:11:10;9.65;;;2.20;;
22812;SDS011;11573;51.334;3.244;2023-05-16T04:13:37;9.27;;;1.80;;
22812;SDS011;11573;51.334;3.244;2023-05-16T04:16:04;10.98;;;2.03;;
22812;SDS011;11573;51.334;3.244;2023-05-16T04:18:32;15.18;;;2.75;;
22812;SDS011;11573;51.334;3.244;2023-05-16T04:20:59;8.13;;;1.80;;
22812;SDS011;11573;51.334;3.244;2023-05-16T04:23:26;16.10;;;2.33;;
22812;SDS011;11573;51.334;3.244;2023-05-16T04:25:52;13.27;;;2.13;;
22812;SDS011;11573;51.334;3.244;2023-05-16T04:28:21;10.43;;;2.05;;
22812;SDS011;11573;51.334;3.244;2023-05-16T04:30:48;9.73;;;1.85;;
22812;SDS011;11573;51.334;3.244;2023-05-16T04:33:16;8.15;;;1.85;;
22812;SDS011;11573;51.334;3.244;2023-05-16T04:35:43;7.45;;;2.08;;
22812;SDS011;11573;51.334;3.244;2023-05-16T04:38:10;6.55;;;1.92;;
22812;SDS011;11573;51.334;3.244;2023-05-16T04:40:37;9.45;;;2.38;;
22812;SDS011;11573;51.334;3.244;2023-05-16T04:43:06;9.25;;;2.30;;
22812;SDS011;11573;51.334;3.244;2023-05-16T04:45:34;16.98;;;2.83;;
22812;SDS011;11573;51.334;3.244;2023-05-16T04:48:03;10.95;;;1.90;;
22812;SDS011;11573;51.334;3.244;2023-05-16T04:50:30;9.45;;;1.83;;
22812;SDS011;11573;51.334;3.244;2023-05-16T04:52:57;17.88;;;2.30;;
22812;SDS011;11573;51.334;3.244;2023-05-16T04:55:24;11.85;;;2.25;;
22812;SDS011;11573;51.334;3.244;2023-05-16T04:57:51;14.02;;;3.05;;
22812;SDS011;11573;51.334;3.244;2023-05-16T05:00:18;15.45;;;2.97;;
22812;SDS011;11573;51.334;3.244;2023-05-16T05:02:45;10.27;;;2.55;;
22812;SDS011;11573;51.334;3.244;2023-05-16T05:05:12;10.48;;;1.67;;
22812;SDS011;11573;51.334;3.244;2023-05-16T05:07:40;19.27;;;2.28;;
22812;SDS011;11573;51.334;3.244;2023-05-16T05:10:08;11.10;;;1.92;;
22812;SDS011;11573;51.334;3.244;2023-05-16T05:12:36;13.63;;;2.28;;
22812;SDS011;11573;51.334;3.244;2023-05-16T05:15:03;11.13;;;2.65;;
22812;SDS011;11573;51.334;3.244;2023-05-16T05:17:31;11.82;;;2.10;;
22812;SDS011;11573;51.334;3.244;2023-05-16T05:19:58;10.05;;;1.83;;
22812;SDS011;11573;51.334;3.244;2023-05-16T05:22:28;13.57;;;2.50;;
22812;SDS011;11573;51.334;3.244;2023-05-16T05:24:55;8.75;;;1.92;;
22812;SDS011;11573;51.334;3.244;2023-05-16T05:27:22;11.00;;;2.30;;
22812;SDS011;11573;51.334;3.244;2023-05-16T05:29:50;17.95;;;2.97;;
22812;SDS011;11573;51.334;3.244;2023-05-16T05:32:17;13.88;;;2.33;;
22812;SDS011;11573;51.334;3.244;2023-05-16T05:34:44;15.38;;;2.03;;
22812;SDS011;11573;51.334;3.244;2023-05-16T05:37:11;9.52;;;2.13;;
22812;SDS011;11573;51.334;3.244;2023-05-16T05:39:38;7.82;;;2.10;;
22812;SDS011;11573;51.334;3.244;2023-05-16T05:42:06;10.13;;;2.40;;
22812;SDS011;11573;51.334;3.244;2023-05-16T05:44:33;14.50;;;1.95;;
22812;SDS011;11573;51.334;3.244;2023-05-16T05:47:00;12.85;;;2.15;;
22812;SDS011;11573;51.334;3.244;2023-05-16T05:49:27;10.68;;;2.15;;
22812;SDS011;11573;51.334;3.244;2023-05-16T05:51:54;15.98;;;2.95;;
22812;SDS011;11573;51.334;3.244;2023-05-16T05:54:22;12.73;;;2.25;;
22812;SDS011;11573;51.334;3.244;2023-05-16T05:56:49;13.45;;;2.47;;
22812;SDS011;11573;51.334;3.244;2023-05-16T05:59:16;9.57;;;2.63;;
22812;SDS011;11573;51.334;3.244;2023-05-16T06:01:43;14.05;;;1.98;;
22812;SDS011;11573;51.334;3.244;2023-05-16T06:04:10;9.68;;;2.10;;
22812;SDS011;11573;51.334;3.244;2023-05-16T06:06:37;16.83;;;2.25;;
22812;SDS011;11573;51.334;3.244;2023-05-16T06:09:05;13.15;;;2.45;;
22812;SDS011;11573;51.334;3.244;2023-05-16T06:11:32;11.05;;;2.55;;
22812;SDS011;11573;51.334;3.244;2023-05-16T06:13:59;9.68;;;1.98;;
22812;SDS011;11573;51.334;3.244;2023-05-16T06:16:26;12.23;;;1.70;;
22812;SDS011;11573;51.334;3.244;2023-05-16T06:18:53;11.32;;;1.92;;
22812;SDS011;11573;51.334;3.244;2023-05-16T06:21:20;11.25;;;1.75;;
22812;SDS011;11573;51.334;3.244;2023-05-16T06:23:47;9.23;;;2.13;;
22812;SDS011;11573;51.334;3.244;2023-05-16T06:26:14;11.43;;;2.10;;
22812;SDS011;11573;51.334;3.244;2023-05-16T06:28:41;10.63;;;1.83;;
22812;SDS011;11573;51.334;3.244;2023-05-16T06:31:08;8.60;;;2.00;;
22812;SDS011;11573;51.334;3.244;2023-05-16T06:33:35;10.38;;;1.80;;
22812;SDS011;11573;51.334;3.244;2023-05-16T06:36:02;9.55;;;1.90;;
22812;SDS011;11573;51.334;3.244;2023-05-16T06:38:29;12.52;;;2.13;;
22812;SDS011;11573;51.334;3.244;2023-05-16T06:40:56;9.73;;;2.00;;
22812;SDS011;11573;51.334;3.244;2023-05-16T06:43:23;17.20;;;2.00;;
22812;SDS011;11573;51.334;3.244;2023-05-16T06:45:50;10.00;;;1.92;;
22812;SDS011;11573;51.334;3.244;2023-05-16T06:48:17;7.18;;;1.75;;
22812;SDS011;11573;51.334;3.244;2023-05-16T06:50:48;10.20;;;2.17;;
22812;SDS011;11573;51.334;3.244;2023-05-16T06:53:17;12.38;;;1.52;;
22812;SDS011;11573;51.334;3.244;2023-05-16T06:55:44;9.43;;;1.77;;
22812;SDS011;11573;51.334;3.244;2023-05-16T06:58:12;11.90;;;1.70;;
22812;SDS011;11573;51.334;3.244;2023-05-16T07:00:39;12.13;;;1.88;;
22812;SDS011;11573;51.334;3.244;2023-05-16T07:03:07;8.98;;;1.67;;
22812;SDS011;11573;51.334;3.244;2023-05-16T07:05:34;13.48;;;1.95;;
22812;SDS011;11573;51.334;3.244;2023-05-16T07:08:01;11.50;;;1.90;;
22812;SDS011;11573;51.334;3.244;2023-05-16T07:10:31;8.55;;;2.40;;
22812;SDS011;11573;51.334;3.244;2023-05-16T07:12:58;6.30;;;1.73;;
22812;SDS011;11573;51.334;3.244;2023-05-16T07:15:26;8.10;;;1.60;;
22812;SDS011;11573;51.334;3.244;2023-05-16T07:17:54;6.50;;;1.88;;
22812;SDS011;11573;51.334;3.244;2023-05-16T07:20:21;9.27;;;1.65;;
22812;SDS011;11573;51.334;3.244;2023-05-16T07:22:48;7.65;;;2.25;;
22812;SDS011;11573;51.334;3.244;2023-05-16T07:25:15;10.18;;;2.13;;
22812;SDS011;11573;51.334;3.244;2023-05-16T07:27:42;8.05;;;1.70;;
22812;SDS011;11573;51.334;3.244;2023-05-16T07:30:11;9.38;;;2.22;;
22812;SDS011;11573;51.334;3.244;2023-05-16T07:32:38;10.77;;;2.08;;
22812;SDS011;11573;51.334;3.244;2023-05-16T07:35:06;10.43;;;1.80;;
22812;SDS011;11573;51.334;3.244;2023-05-16T07:37:33;11.20;;;2.08;;
22812;SDS011;11573;51.334;3.244;2023-05-16T07:40:00;14.07;;;2.67;;
22812;SDS011;11573;51.334;3.244;2023-05-16T07:42:30;11.30;;;1.80;;
22812;SDS011;11573;51.334;3.244;2023-05-16T07:44:57;8.73;;;1.65;;
22812;SDS011;11573;51.334;3.244;2023-05-16T07:47:24;8.40;;;1.92;;
22812;SDS011;11573;51.334;3.244;2023-05-16T07:49:52;10.25;;;1.95;;
22812;SDS011;11573;51.334;3.244;2023-05-16T07:52:19;11.60;;;1.90;;
22812;SDS011;11573;51.334;3.244;2023-05-16T07:54:46;10.68;;;1.95;;
22812;SDS011;11573;51.334;3.244;2023-05-16T07:57:16;10.02;;;2.15;;
22812;SDS011;11573;51.334;3.244;2023-05-16T07:59:43;11.52;;;1.50;;
22812;SDS011;11573;51.334;3.244;2023-05-16T08:02:10;11.30;;;2.17;;
22812;SDS011;11573;51.334;3.244;2023-05-16T08:04:37;9.68;;;1.60;;
22812;SDS011;11573;51.334;3.244;2023-05-16T08:07:04;10.07;;;1.83;;
22812;SDS011;11573;51.334;3.244;2023-05-16T08:09:31;9.38;;;1.70;;
22812;SDS011;11573;51.334;3.244;2023-05-16T08:11:59;12.23;;;2.00;;
22812;SDS011;11573;51.334;3.244;2023-05-16T08:14:30;16.67;;;2.60;;
22812;SDS011;11573;51.334;3.244;2023-05-16T08:17:00;9.30;;;2.00;;
22812;SDS011;11573;51.334;3.244;2023-05-16T08:19:28;10.68;;;1.73;;
22812;SDS011;11573;51.334;3.244;2023-05-16T08:21:55;10.73;;;1.70;;
22812;SDS011;11573;51.334;3.244;2023-05-16T08:24:22;8.80;;;2.13;;
22812;SDS011;11573;51.334;3.244;2023-05-16T08:26:49;11.73;;;2.08;;
22812;SDS011;11573;51.334;3.244;2023-05-16T08:29:16;5.63;;;1.45;;
22812;SDS011;11573;51.334;3.244;2023-05-16T08:31:43;5.82;;;1.73;;
22812;SDS011;11573;51.334;3.244;2023-05-16T08:34:10;7.38;;;1.75;;
22812;SDS011;11573;51.334;3.244;2023-05-16T08:36:37;9.45;;;2.20;;
22812;SDS011;11573;51.334;3.244;2023-05-16T08:39:04;9.35;;;1.63;;
22812;SDS011;11573;51.334;3.244;2023-05-16T08:41:31;8.05;;;1.85;;
22812;SDS011;11573;51.334;3.244;2023-05-16T08:43:58;10.65;;;1.98;;
22812;SDS011;11573;51.334;3.244;2023-05-16T08:46:26;8.40;;;1.75;;
22812;SDS011;11573;51.334;3.244;2023-05-16T08:48:57;15.25;;;2.30;;
22812;SDS011;11573;51.334;3.244;2023-05-16T08:51:27;8.95;;;1.52;;
22812;SDS011;11573;51.334;3.244;2023-05-16T08:54:05;6.40;;;1.67;;
22812;SDS011;11573;51.334;3.244;2023-05-16T08:56:37;6.63;;;1.70;;
22812;SDS011;11573;51.334;3.244;2023-05-16T08:59:04;8.10;;;1.60;;
22812;SDS011;11573;51.334;3.244;2023-05-16T09:01:32;8.40;;;1.80;;
22812;SDS011;11573;51.334;3.244;2023-05-16T09:03:59;8.50;;;1.73;;
22812;SDS011;11573;51.334;3.244;2023-05-16T09:06:27;9.35;;;1.85;;
22812;SDS011;11573;51.334;3.244;2023-05-16T09:08:54;10.52;;;1.73;;
22812;SDS011;11573;51.334;3.244;2023-05-16T09:11:21;10.82;;;2.58;;
22812;SDS011;11573;51.334;3.244;2023-05-16T09:13:48;7.20;;;1.65;;
22812;SDS011;11573;51.334;3.244;2023-05-16T09:16:19;7.28;;;1.65;;
22812;SDS011;11573;51.334;3.244;2023-05-16T09:18:54;7.85;;;1.77;;
22812;SDS011;11573;51.334;3.244;2023-05-16T09:21:29;8.75;;;2.17;;
22812;SDS011;11573;51.334;3.244;2023-05-16T09:24:04;8.82;;;2.10;;
22812;SDS011;11573;51.334;3.244;2023-05-16T09:26:34;10.00;;;1.80;;
22812;SDS011;11573;51.334;3.244;2023-05-16T09:29:09;11.73;;;2.20;;
22812;SDS011;11573;51.334;3.244;2023-05-16T09:31:39;18.88;;;1.90;;
22812;SDS011;11573;51.334;3.244;2023-05-16T09:34:06;4.72;;;1.77;;
22812;SDS011;11573;51.334;3.244;2023-05-16T09:36:34;11.90;;;2.22;;
22812;SDS011;11573;51.334;3.244;2023-05-16T09:39:02;11.48;;;2.15;;
22812;SDS011;11573;51.334;3.244;2023-05-16T09:41:32;7.80;;;2.10;;
22812;SDS011;11573;51.334;3.244;2023-05-16T09:44:03;11.30;;;2.15;;
22812;SDS011;11573;51.334;3.244;2023-05-16T09:46:33;8.38;;;1.90;;
22812;SDS011;11573;51.334;3.244;2023-05-16T09:49:02;11.18;;;1.60;;
22812;SDS011;11573;51.334;3.244;2023-05-16T09:51:29;8.93;;;2.03;;
22812;SDS011;11573;51.334;3.244;2023-05-16T09:53:59;8.00;;;1.65;;
22812;SDS011;11573;51.334;3.244;2023-05-16T09:56:26;9.65;;;1.77;;
22812;SDS011;11573;51.334;3.244;2023-05-16T09:58:55;10.20;;;1.98;;
22812;SDS011;11573;51.334;3.244;2023-05-16T10:01:22;8.70;;;1.60;;
22812;SDS011;11573;51.334;3.244;2023-05-16T10:03:50;13.23;;;1.88;;
22812;SDS011;11573;51.334;3.244;2023-05-16T10:06:17;6.65;;;1.95;;
22812;SDS011;11573;51.334;3.244;2023-05-16T10:08:44;7.18;;;1.45;;
22812;SDS011;11573;51.334;3.244;2023-05-16T10:11:12;7.45;;;1.70;;
22812;SDS011;11573;51.334;3.244;2023-05-16T10:13:39;9.60;;;2.17;;
22812;SDS011;11573;51.334;3.244;2023-05-16T10:16:08;7.47;;;1.80;;
22812;SDS011;11573;51.334;3.244;2023-05-16T10:18:37;7.18;;;2.00;;
22812;SDS011;11573;51.334;3.244;2023-05-16T10:21:07;7.18;;;1.58;;
22812;SDS011;11573;51.334;3.244;2023-05-16T10:23:42;4.93;;;1.45;;
22812;SDS011;11573;51.334;3.244;2023-05-16T10:26:13;8.45;;;2.25;;
22812;SDS011;11573;51.334;3.244;2023-05-16T10:28:42;9.05;;;1.77;;
22812;SDS011;11573;51.334;3.244;2023-05-16T10:31:10;7.15;;;1.65;;
22812;SDS011;11573;51.334;3.244;2023-05-16T10:33:37;6.95;;;1.75;;
22812;SDS011;11573;51.334;3.244;2023-05-16T10:36:06;2.80;;;1.35;;
22812;SDS011;11573;51.334;3.244;2023-05-16T10:38:34;6.38;;;1.48;;
22812;SDS011;11573;51.334;3.244;2023-05-16T10:41:02;12.73;;;1.88;;
22812;SDS011;11573;51.334;3.244;2023-05-16T10:43:31;4.97;;;1.20;;
22812;SDS011;11573;51.334;3.244;2023-05-16T10:46:02;6.05;;;1.48;;
22812;SDS011;11573;51.334;3.244;2023-05-16T10:48:32;5.97;;;1.30;;
22812;SDS011;11573;51.334;3.244;2023-05-16T10:51:01;4.65;;;1.10;;
22812;SDS011;11573;51.334;3.244;2023-05-16T10:53:31;4.80;;;1.70;;
22812;SDS011;11573;51.334;3.244;2023-05-16T11:04:03;6.82;;;1.75;;
22812;SDS011;11573;51.334;3.244;2023-05-16T11:11:57;3.90;;;1.45;;
22812;SDS011;11573;51.334;3.244;2023-05-16T11:14:37;5.63;;;1.85;;
22812;SDS011;11573;51.334;3.244;2023-05-16T11:19:51;5.35;;;1.40;;
22812;SDS011;11573;51.334;3.244;2023-05-16T11:22:25;5.68;;;1.50;;
22812;SDS011;11573;51.334;3.244;2023-05-16T11:27:36;4.70;;;1.13;;
22812;SDS011;11573;51.334;3.244;2023-05-16T11:32:41;6.03;;;1.10;;
22812;SDS011;11573;51.334;3.244;2023-05-16T11:35:11;5.50;;;1.35;;
22812;SDS011;11573;51.334;3.244;2023-05-16T11:37:41;7.68;;;1.50;;
22812;SDS011;11573;51.334;3.244;2023-05-16T11:40:09;5.20;;;1.35;;
22812;SDS011;11573;51.334;3.244;2023-05-16T11:42:39;5.80;;;1.50;;
22812;SDS011;11573;51.334;3.244;2023-05-16T11:45:08;9.23;;;1.70;;
22812;SDS011;11573;51.334;3.244;2023-05-16T11:47:39;5.93;;;1.70;;
22812;SDS011;11573;51.334;3.244;2023-05-16T11:52:37;6.63;;;1.50;;
22812;SDS011;11573;51.334;3.244;2023-05-16T11:55:05;9.77;;;1.60;;
22812;SDS011;11573;51.334;3.244;2023-05-16T11:57:33;6.28;;;1.42;;
22812;SDS011;11573;51.334;3.244;2023-05-16T12:00:13;8.32;;;1.70;;
22812;SDS011;11573;51.334;3.244;2023-05-16T12:02:45;5.22;;;1.40;;
22812;SDS011;11573;51.334;3.244;2023-05-16T12:05:13;6.88;;;1.20;;
22812;SDS011;11573;51.334;3.244;2023-05-16T12:07:42;4.70;;;1.45;;
22812;SDS011;11573;51.334;3.244;2023-05-16T12:10:11;3.75;;;1.17;;
22812;SDS011;11573;51.334;3.244;2023-05-16T12:12:40;6.47;;;1.60;;
22812;SDS011;11573;51.334;3.244;2023-05-16T12:15:10;4.95;;;1.50;;
22812;SDS011;11573;51.334;3.244;2023-05-16T12:17:39;5.45;;;1.75;;
22812;SDS011;11573;51.334;3.244;2023-05-16T12:20:07;4.90;;;1.45;;
22812;SDS011;11573;51.334;3.244;2023-05-16T12:22:40;6.88;;;1.63;;
22812;SDS011;11573;51.334;3.244;2023-05-16T12:25:27;2.92;;;1.20;;
22812;SDS011;11573;51.334;3.244;2023-05-16T12:27:58;3.17;;;1.35;;
22812;SDS011;11573;51.334;3.244;2023-05-16T12:30:27;4.70;;;1.77;;
22812;SDS011;11573;51.334;3.244;2023-05-16T12:32:56;5.78;;;1.88;;
22812;SDS011;11573;51.334;3.244;2023-05-16T12:35:33;5.53;;;1.55;;
22812;SDS011;11573;51.334;3.244;2023-05-16T12:38:03;4.55;;;1.35;;
22812;SDS011;11573;51.334;3.244;2023-05-16T12:40:30;5.70;;;1.33;;
22812;SDS011;11573;51.334;3.244;2023-05-16T12:42:58;6.85;;;1.52;;
22812;SDS011;11573;51.334;3.244;2023-05-16T12:45:27;4.60;;;1.45;;
22812;SDS011;11573;51.334;3.244;2023-05-16T12:47:54;5.00;;;1.40;;
22812;SDS011;11573;51.334;3.244;2023-05-16T12:50:22;5.85;;;1.80;;
22812;SDS011;11573;51.334;3.244;2023-05-16T12:52:52;4.32;;;1.10;;
22812;SDS011;11573;51.334;3.244;2023-05-16T12:55:21;4.20;;;1.17;;
22812;SDS011;11573;51.334;3.244;2023-05-16T12:57:48;3.65;;;1.23;;
22812;SDS011;11573;51.334;3.244;2023-05-16T13:00:18;3.58;;;1.35;;
22812;SDS011;11573;51.334;3.244;2023-05-16T13:02:46;3.33;;;0.98;;
22812;SDS011;11573;51.334;3.244;2023-05-16T13:05:14;3.92;;;1.25;;
22812;SDS011;11573;51.334;3.244;2023-05-16T13:07:41;4.45;;;1.45;;
22812;SDS011;11573;51.334;3.244;2023-05-16T13:10:09;4.18;;;1.02;;
22812;SDS011;11573;51.334;3.244;2023-05-16T13:12:37;3.45;;;1.10;;
22812;SDS011;11573;51.334;3.244;2023-05-16T13:15:07;6.22;;;1.30;;
22812;SDS011;11573;51.334;3.244;2023-05-16T13:17:39;4.97;;;1.40;;
22812;SDS011;11573;51.334;3.244;2023-05-16T13:20:07;2.95;;;1.45;;
22812;SDS011;11573;51.334;3.244;2023-05-16T13:22:35;7.63;;;1.60;;
22812;SDS011;11573;51.334;3.244;2023-05-16T13:25:03;6.90;;;1.60;;
22812;SDS011;11573;51.334;3.244;2023-05-16T13:27:31;6.43;;;1.38;;
22812;SDS011;11573;51.334;3.244;2023-05-16T13:29:59;4.85;;;1.30;;
22812;SDS011;11573;51.334;3.244;2023-05-16T13:32:26;5.80;;;1.42;;
22812;SDS011;11573;51.334;3.244;2023-05-16T13:34:53;6.57;;;1.67;;
22812;SDS011;11573;51.334;3.244;2023-05-16T13:37:21;6.70;;;1.80;;
22812;SDS011;11573;51.334;3.244;2023-05-16T13:39:49;3.78;;;1.35;;
22812;SDS011;11573;51.334;3.244;2023-05-16T13:42:17;4.55;;;1.30;;
22812;SDS011;11573;51.334;3.244;2023-05-16T13:44:44;2.88;;;1.20;;
22812;SDS011;11573;51.334;3.244;2023-05-16T13:47:11;3.58;;;1.30;;
22812;SDS011;11573;51.334;3.244;2023-05-16T13:49:38;3.85;;;1.25;;
22812;SDS011;11573;51.334;3.244;2023-05-16T13:52:05;2.60;;;1.50;;
22812;SDS011;11573;51.334;3.244;2023-05-16T13:54:32;1.98;;;1.40;;
22812;SDS011;11573;51.334;3.244;2023-05-16T13:56:59;6.38;;;1.52;;
22812;SDS011;11573;51.334;3.244;2023-05-16T13:59:27;4.93;;;1.60;;
22812;SDS011;11573;51.334;3.244;2023-05-16T14:02:14;5.47;;;1.33;;
22812;SDS011;11573;51.334;3.244;2023-05-16T14:04:41;4.97;;;1.42;;
22812;SDS011;11573;51.334;3.244;2023-05-16T14:07:08;4.07;;;1.20;;
22812;SDS011;11573;51.334;3.244;2023-05-16T14:09:35;6.03;;;1.55;;
22812;SDS011;11573;51.334;3.244;2023-05-16T14:12:07;6.38;;;1.50;;
22812;SDS011;11573;51.334;3.244;2023-05-16T14:14:35;5.85;;;1.42;;
22812;SDS011;11573;51.334;3.244;2023-05-16T14:17:02;4.28;;;1.40;;
22812;SDS011;11573;51.334;3.244;2023-05-16T14:19:29;3.53;;;1.27;;
22812;SDS011;11573;51.334;3.244;2023-05-16T14:21:57;6.80;;;1.17;;
22812;SDS011;11573;51.334;3.244;2023-05-16T14:24:24;4.85;;;1.45;;
22812;SDS011;11573;51.334;3.244;2023-05-16T14:26:51;4.30;;;1.40;;
22812;SDS011;11573;51.334;3.244;2023-05-16T14:29:23;6.28;;;1.38;;
22812;SDS011;11573;51.334;3.244;2023-05-16T14:31:51;6.90;;;1.80;;
22812;SDS011;11573;51.334;3.244;2023-05-16T14:34:18;6.50;;;1.48;;
22812;SDS011;11573;51.334;3.244;2023-05-16T14:36:47;5.03;;;1.38;;
22812;SDS011;11573;51.334;3.244;2023-05-16T14:39:14;5.28;;;1.48;;
22812;SDS011;11573;51.334;3.244;2023-05-16T14:41:41;6.15;;;1.75;;
22812;SDS011;11573;51.334;3.244;2023-05-16T14:44:08;4.57;;;1.25;;
22812;SDS011;11573;51.334;3.244;2023-05-16T14:46:35;7.97;;;1.80;;
22812;SDS011;11573;51.334;3.244;2023-05-16T14:49:02;6.47;;;1.45;;
22812;SDS011;11573;51.334;3.244;2023-05-16T14:51:30;6.80;;;2.35;;
22812;SDS011;11573;51.334;3.244;2023-05-16T14:53:57;10.63;;;2.15;;
22812;SDS011;11573;51.334;3.244;2023-05-16T14:56:24;7.40;;;2.03;;
22812;SDS011;11573;51.334;3.244;2023-05-16T14:58:52;5.93;;;1.95;;
22812;SDS011;11573;51.334;3.244;2023-05-16T15:01:19;5.35;;;1.95;;
22812;SDS011;11573;51.334;3.244;2023-05-16T15:03:46;5.60;;;2.22;;
22812;SDS011;11573;51.334;3.244;2023-05-16T15:06:20;6.90;;;2.25;;
22812;SDS011;11573;51.334;3.244;2023-05-16T15:08:48;7.80;;;2.00;;
22812;SDS011;11573;51.334;3.244;2023-05-16T15:11:15;7.35;;;2.55;;
22812;SDS011;11573;51.334;3.244;2023-05-16T15:13:42;6.20;;;2.03;;
22812;SDS011;11573;51.334;3.244;2023-05-16T15:16:08;7.78;;;2.08;;
22812;SDS011;11573;51.334;3.244;2023-05-16T15:18:36;7.57;;;2.50;;
22812;SDS011;11573;51.334;3.244;2023-05-16T15:21:03;7.18;;;2.40;;
22812;SDS011;11573;51.334;3.244;2023-05-16T15:23:30;5.72;;;2.05;;
22812;SDS011;11573;51.334;3.244;2023-05-16T15:25:57;5.80;;;2.50;;
22812;SDS011;11573;51.334;3.244;2023-05-16T15:28:24;11.32;;;2.42;;